sensor_id;sensor_type;location;lat;lon;timestamp;temperature;humidity
7216;DHT22;3649;48.798;9.798;2023-09-18T00:00:59;23.60;99.90
7216;DHT22;3649;48.798;9.798;2023-09-18T00:03:26;23.60;99.90
7216;DHT22;3649;48.798;9.798;2023-09-18T00:05:53;23.60;99.90
7216;DHT22;3649;48.798;9.798;2023-09-18T00:08:22;23.50;99.90
7216;DHT22;3649;48.798;9.798;2023-09-18T00:10:53;23.50;99.90
7216;DHT22;3649;48.798;9.798;2023-09-18T00:13:21;23.40;99.90
7216;DHT22;3649;48.798;9.798;2023-09-18T00:15:48;23.40;99.90
7216;DHT22;3649;48.798;9.798;2023-09-18T00:18:16;23.40;99.90
7216;DHT22;3649;48.798;9.798;2023-09-18T00:20:43;23.40;99.90
7216;DHT22;3649;48.798;9.798;2023-09-18T00:23:11;23.40;99.90
7216;DHT22;3649;48.798;9.798;2023-09-18T00:25:37;23.40;99.90
7216;DHT22;3649;48.798;9.798;2023-09-18T00:28:04;23.40;99.90
7216;DHT22;3649;48.798;9.798;2023-09-18T00:30:31;23.40;99.90
7216;DHT22;3649;48.798;9.798;2023-09-18T00:32:58;23.40;99.90
7216;DHT22;3649;48.798;9.798;2023-09-18T00:35:25;23.30;99.90
7216;DHT22;3649;48.798;9.798;2023-09-18T00:37:52;24.80;99.90
7216;DHT22;3649;48.798;9.798;2023-09-18T00:40:19;23.30;99.90
7216;DHT22;3649;48.798;9.798;2023-09-18T00:42:46;23.30;99.90
7216;DHT22;3649;48.798;9.798;2023-09-18T00:45:13;23.20;99.90
7216;DHT22;3649;48.798;9.798;2023-09-18T00:47:40;23.10;99.90
7216;DHT22;3649;48.798;9.798;2023-09-18T00:50:09;23.10;99.90
7216;DHT22;3649;48.798;9.798;2023-09-18T00:52:38;23.10;99.90
7216;DHT22;3649;48.798;9.798;2023-09-18T00:55:06;23.00;99.90
7216;DHT22;3649;48.798;9.798;2023-09-18T00:57:33;23.00;99.90
7216;DHT22;3649;48.798;9.798;2023-09-18T01:00:02;23.10;99.90
7216;DHT22;3649;48.798;9.798;2023-09-18T01:02:31;23.10;99.90
7216;DHT22;3649;48.798;9.798;2023-09-18T01:04:58;23.20;99.90
7216;DHT22;3649;48.798;9.798;2023-09-18T01:07:26;23.20;99.90
7216;DHT22;3649;48.798;9.798;2023-09-18T01:09:55;23.20;99.90
7216;DHT22;3649;48.798;9.798;2023-09-18T01:12:55;23.10;99.90
7216;DHT22;3649;48.798;9.798;2023-09-18T01:15:30;23.10;99.90
7216;DHT22;3649;48.798;9.798;2023-09-18T01:17:59;23.10;99.90
7216;DHT22;3649;48.798;9.798;2023-09-18T01:20:26;23.00;99.90
7216;DHT22;3649;48.798;9.798;2023-09-18T01:22:54;23.10;99.90
7216;DHT22;3649;48.798;9.798;2023-09-18T01:25:21;23.10;99.90
7216;DHT22;3649;48.798;9.798;2023-09-18T01:27:48;23.10;99.90
7216;DHT22;3649;48.798;9.798;2023-09-18T01:30:15;23.10;99.90
7216;DHT22;3649;48.798;9.798;2023-09-18T01:32:43;23.00;99.90
7216;DHT22;3649;48.798;9.798;2023-09-18T01:35:12;23.00;99.90
7216;DHT22;3649;48.798;9.798;2023-09-18T01:37:39;23.00;99.90
7216;DHT22;3649;48.798;9.798;2023-09-18T01:40:07;23.10;99.90
7216;DHT22;3649;48.798;9.798;2023-09-18T01:42:34;23.00;99.90
7216;DHT22;3649;48.798;9.798;2023-09-18T01:45:02;23.00;99.90
7216;DHT22;3649;48.798;9.798;2023-09-18T01:47:29;23.00;99.90
7216;DHT22;3649;48.798;9.798;2023-09-18T01:49:57;23.00;99.90
7216;DHT22;3649;48.798;9.798;2023-09-18T01:52:23;23.00;99.90
7216;DHT22;3649;48.798;9.798;2023-09-18T01:54:50;23.00;99.90
7216;DHT22;3649;48.798;9.798;2023-09-18T01:57:17;22.90;99.90
7216;DHT22;3649;48.798;9.798;2023-09-18T01:59:44;22.90;99.90
7216;DHT22;3649;48.798;9.798;2023-09-18T02:02:13;22.90;99.90
7216;DHT22;3649;48.798;9.798;2023-09-18T02:04:46;23.00;99.90
7216;DHT22;3649;48.798;9.798;2023-09-18T02:07:33;22.90;99.90
7216;DHT22;3649;48.798;9.798;2023-09-18T02:10:00;23.00;99.90
7216;DHT22;3649;48.798;9.798;2023-09-18T02:12:27;23.00;99.90
7216;DHT22;3649;48.798;9.798;2023-09-18T02:14:54;23.00;99.90
7216;DHT22;3649;48.798;9.798;2023-09-18T02:17:24;23.00;99.90
7216;DHT22;3649;48.798;9.798;2023-09-18T02:19:51;23.00;99.90
7216;DHT22;3649;48.798;9.798;2023-09-18T02:22:18;22.90;99.90
7216;DHT22;3649;48.798;9.798;2023-09-18T02:24:45;23.00;99.90
7216;DHT22;3649;48.798;9.798;2023-09-18T02:27:11;22.90;99.90
7216;DHT22;3649;48.798;9.798;2023-09-18T02:29:39;23.00;99.90
7216;DHT22;3649;48.798;9.798;2023-09-18T02:32:06;23.10;99.90
7216;DHT22;3649;48.798;9.798;2023-09-18T02:34:33;23.10;99.90
7216;DHT22;3649;48.798;9.798;2023-09-18T02:37:00;23.00;99.90
7216;DHT22;3649;48.798;9.798;2023-09-18T02:39:27;22.90;99.90
7216;DHT22;3649;48.798;9.798;2023-09-18T02:41:54;23.00;99.90
7216;DHT22;3649;48.798;9.798;2023-09-18T02:44:21;22.90;99.90
7216;DHT22;3649;48.798;9.798;2023-09-18T02:46:48;22.90;99.90
7216;DHT22;3649;48.798;9.798;2023-09-18T02:49:14;22.90;99.90
7216;DHT22;3649;48.798;9.798;2023-09-18T02:51:41;23.00;99.90
7216;DHT22;3649;48.798;9.798;2023-09-18T02:54:08;23.00;99.90
7216;DHT22;3649;48.798;9.798;2023-09-18T02:56:35;23.10;99.90
7216;DHT22;3649;48.798;9.798;2023-09-18T02:59:02;23.00;99.90
7216;DHT22;3649;48.798;9.798;2023-09-18T03:01:29;23.00;99.90
7216;DHT22;3649;48.798;9.798;2023-09-18T03:03:56;23.10;99.90
7216;DHT22;3649;48.798;9.798;2023-09-18T03:06:24;23.10;99.90
7216;DHT22;3649;48.798;9.798;2023-09-18T03:08:51;23.10;99.90
7216;DHT22;3649;48.798;9.798;2023-09-18T03:11:18;23.10;99.90
7216;DHT22;3649;48.798;9.798;2023-09-18T03:13:46;23.10;99.90
7216;DHT22;3649;48.798;9.798;2023-09-18T03:16:14;23.00;99.90
7216;DHT22;3649;48.798;9.798;2023-09-18T03:18:41;23.10;99.90
7216;DHT22;3649;48.798;9.798;2023-09-18T03:21:08;23.00;99.90
7216;DHT22;3649;48.798;9.798;2023-09-18T03:23:34;23.00;99.90
7216;DHT22;3649;48.798;9.798;2023-09-18T03:26:02;23.10;99.90
7216;DHT22;3649;48.798;9.798;2023-09-18T03:28:29;23.10;99.90
7216;DHT22;3649;48.798;9.798;2023-09-18T03:30:58;23.10;99.90
7216;DHT22;3649;48.798;9.798;2023-09-18T03:33:25;23.10;99.90
7216;DHT22;3649;48.798;9.798;2023-09-18T03:35:53;23.10;99.90
7216;DHT22;3649;48.798;9.798;2023-09-18T03:38:21;23.10;99.90
7216;DHT22;3649;48.798;9.798;2023-09-18T03:40:48;23.10;99.90
7216;DHT22;3649;48.798;9.798;2023-09-18T03:43:15;23.10;99.90
7216;DHT22;3649;48.798;9.798;2023-09-18T03:45:43;23.10;99.90
7216;DHT22;3649;48.798;9.798;2023-09-18T03:48:10;23.20;99.90
7216;DHT22;3649;48.798;9.798;2023-09-18T03:50:38;23.10;99.90
7216;DHT22;3649;48.798;9.798;2023-09-18T03:53:06;23.10;99.90
7216;DHT22;3649;48.798;9.798;2023-09-18T03:55:34;23.10;99.90
7216;DHT22;3649;48.798;9.798;2023-09-18T03:58:00;23.20;99.90
7216;DHT22;3649;48.798;9.798;2023-09-18T04:00:27;22.70;99.90
7216;DHT22;3649;48.798;9.798;2023-09-18T04:02:54;23.10;99.90
7216;DHT22;3649;48.798;9.798;2023-09-18T04:05:22;23.10;99.90
7216;DHT22;3649;48.798;9.798;2023-09-18T04:07:49;23.10;99.90
7216;DHT22;3649;48.798;9.798;2023-09-18T04:10:16;23.10;99.90
7216;DHT22;3649;48.798;9.798;2023-09-18T04:12:50;23.10;99.90
7216;DHT22;3649;48.798;9.798;2023-09-18T04:15:19;23.10;99.90
7216;DHT22;3649;48.798;9.798;2023-09-18T04:17:47;23.10;99.90
7216;DHT22;3649;48.798;9.798;2023-09-18T04:20:15;23.00;99.90
7216;DHT22;3649;48.798;9.798;2023-09-18T04:22:46;23.00;99.90
7216;DHT22;3649;48.798;9.798;2023-09-18T04:25:17;23.00;99.90
7216;DHT22;3649;48.798;9.798;2023-09-18T04:27:47;22.90;99.90
7216;DHT22;3649;48.798;9.798;2023-09-18T04:30:17;22.90;99.90
7216;DHT22;3649;48.798;9.798;2023-09-18T04:32:46;22.90;99.90
7216;DHT22;3649;48.798;9.798;2023-09-18T04:35:14;22.90;99.90
7216;DHT22;3649;48.798;9.798;2023-09-18T04:37:41;22.90;99.90
7216;DHT22;3649;48.798;9.798;2023-09-18T04:40:08;22.90;99.90
7216;DHT22;3649;48.798;9.798;2023-09-18T04:42:39;23.00;99.90
7216;DHT22;3649;48.798;9.798;2023-09-18T04:45:07;23.00;99.90
7216;DHT22;3649;48.798;9.798;2023-09-18T04:47:34;23.00;99.90
7216;DHT22;3649;48.798;9.798;2023-09-18T04:50:02;23.00;99.90
7216;DHT22;3649;48.798;9.798;2023-09-18T04:52:36;23.00;99.90
7216;DHT22;3649;48.798;9.798;2023-09-18T04:55:04;23.10;99.90
7216;DHT22;3649;48.798;9.798;2023-09-18T04:57:32;23.10;99.90
7216;DHT22;3649;48.798;9.798;2023-09-18T05:00:01;23.10;99.90
7216;DHT22;3649;48.798;9.798;2023-09-18T05:02:43;23.10;99.90
7216;DHT22;3649;48.798;9.798;2023-09-18T05:05:11;23.10;99.90
7216;DHT22;3649;48.798;9.798;2023-09-18T05:07:38;23.10;99.90
7216;DHT22;3649;48.798;9.798;2023-09-18T05:10:06;23.10;99.90
7216;DHT22;3649;48.798;9.798;2023-09-18T05:12:33;23.10;99.90
7216;DHT22;3649;48.798;9.798;2023-09-18T05:15:00;23.10;99.90
7216;DHT22;3649;48.798;9.798;2023-09-18T05:17:41;23.10;99.90
7216;DHT22;3649;48.798;9.798;2023-09-18T05:20:15;23.00;99.90
7216;DHT22;3649;48.798;9.798;2023-09-18T05:22:44;23.00;99.90
7216;DHT22;3649;48.798;9.798;2023-09-18T05:25:12;23.00;99.90
7216;DHT22;3649;48.798;9.798;2023-09-18T05:27:42;23.00;99.90
7216;DHT22;3649;48.798;9.798;2023-09-18T05:30:19;23.10;99.90
7216;DHT22;3649;48.798;9.798;2023-09-18T05:32:48;23.10;99.90
7216;DHT22;3649;48.798;9.798;2023-09-18T05:35:16;23.00;99.90
7216;DHT22;3649;48.798;9.798;2023-09-18T05:37:44;23.00;99.90
7216;DHT22;3649;48.798;9.798;2023-09-18T05:40:12;23.00;99.90
7216;DHT22;3649;48.798;9.798;2023-09-18T05:42:43;22.90;99.90
7216;DHT22;3649;48.798;9.798;2023-09-18T05:45:14;23.00;99.90
7216;DHT22;3649;48.798;9.798;2023-09-18T05:47:41;23.00;99.90
7216;DHT22;3649;48.798;9.798;2023-09-18T05:50:11;23.00;99.90
7216;DHT22;3649;48.798;9.798;2023-09-18T05:52:44;23.10;99.90
7216;DHT22;3649;48.798;9.798;2023-09-18T05:55:11;23.00;99.90
7216;DHT22;3649;48.798;9.798;2023-09-18T05:57:38;23.10;99.90
7216;DHT22;3649;48.798;9.798;2023-09-18T06:00:05;23.10;99.90
7216;DHT22;3649;48.798;9.798;2023-09-18T06:02:32;23.10;99.90
7216;DHT22;3649;48.798;9.798;2023-09-18T06:05:01;23.10;99.90
7216;DHT22;3649;48.798;9.798;2023-09-18T06:07:28;23.10;99.90
7216;DHT22;3649;48.798;9.798;2023-09-18T06:09:55;23.10;99.90
7216;DHT22;3649;48.798;9.798;2023-09-18T06:12:22;23.10;99.90
7216;DHT22;3649;48.798;9.798;2023-09-18T06:14:49;23.20;99.90
7216;DHT22;3649;48.798;9.798;2023-09-18T06:17:17;23.20;99.90
7216;DHT22;3649;48.798;9.798;2023-09-18T06:19:47;23.20;99.90
7216;DHT22;3649;48.798;9.798;2023-09-18T06:22:15;23.20;99.90
7216;DHT22;3649;48.798;9.798;2023-09-18T06:24:42;23.20;99.90
7216;DHT22;3649;48.798;9.798;2023-09-18T06:27:09;23.20;99.90
7216;DHT22;3649;48.798;9.798;2023-09-18T06:29:37;23.20;99.90
7216;DHT22;3649;48.798;9.798;2023-09-18T06:32:06;23.20;99.90
7216;DHT22;3649;48.798;9.798;2023-09-18T06:34:33;23.30;99.90
7216;DHT22;3649;48.798;9.798;2023-09-18T06:37:00;23.40;99.90
7216;DHT22;3649;48.798;9.798;2023-09-18T06:39:27;23.40;99.90
7216;DHT22;3649;48.798;9.798;2023-09-18T06:41:54;23.50;99.90
7216;DHT22;3649;48.798;9.798;2023-09-18T06:44:22;23.40;99.90
7216;DHT22;3649;48.798;9.798;2023-09-18T06:46:50;23.40;99.90
7216;DHT22;3649;48.798;9.798;2023-09-18T06:49:17;23.50;99.90
7216;DHT22;3649;48.798;9.798;2023-09-18T06:51:46;23.50;99.90
7216;DHT22;3649;48.798;9.798;2023-09-18T06:54:13;23.60;99.90
7216;DHT22;3649;48.798;9.798;2023-09-18T06:56:40;23.60;99.90
7216;DHT22;3649;48.798;9.798;2023-09-18T06:59:08;23.60;99.90
7216;DHT22;3649;48.798;9.798;2023-09-18T07:01:35;23.60;99.90
7216;DHT22;3649;48.798;9.798;2023-09-18T07:04:02;23.70;99.90
7216;DHT22;3649;48.798;9.798;2023-09-18T07:06:31;23.70;99.90
7216;DHT22;3649;48.798;9.798;2023-09-18T07:08:58;23.80;99.90
7216;DHT22;3649;48.798;9.798;2023-09-18T07:11:26;23.80;99.90
7216;DHT22;3649;48.798;9.798;2023-09-18T07:13:53;23.80;99.90
7216;DHT22;3649;48.798;9.798;2023-09-18T07:16:20;23.90;99.90
7216;DHT22;3649;48.798;9.798;2023-09-18T07:18:47;24.00;99.90
7216;DHT22;3649;48.798;9.798;2023-09-18T07:21:14;23.90;99.90
7216;DHT22;3649;48.798;9.798;2023-09-18T07:23:41;23.90;99.90
7216;DHT22;3649;48.798;9.798;2023-09-18T07:26:08;23.90;99.90
7216;DHT22;3649;48.798;9.798;2023-09-18T07:28:35;23.90;99.90
7216;DHT22;3649;48.798;9.798;2023-09-18T07:31:09;24.00;99.90
7216;DHT22;3649;48.798;9.798;2023-09-18T07:33:36;24.00;99.90
7216;DHT22;3649;48.798;9.798;2023-09-18T07:36:03;24.00;99.90
7216;DHT22;3649;48.798;9.798;2023-09-18T07:38:31;24.00;99.90
7216;DHT22;3649;48.798;9.798;2023-09-18T07:40:58;24.00;99.90
7216;DHT22;3649;48.798;9.798;2023-09-18T07:43:25;24.10;99.90
7216;DHT22;3649;48.798;9.798;2023-09-18T07:45:53;24.10;99.90
7216;DHT22;3649;48.798;9.798;2023-09-18T07:48:22;24.10;99.90
7216;DHT22;3649;48.798;9.798;2023-09-18T07:50:49;24.20;99.90
7216;DHT22;3649;48.798;9.798;2023-09-18T07:53:18;24.20;99.90
7216;DHT22;3649;48.798;9.798;2023-09-18T07:55:47;24.20;99.90
7216;DHT22;3649;48.798;9.798;2023-09-18T07:58:14;24.20;99.90
7216;DHT22;3649;48.798;9.798;2023-09-18T08:00:41;24.20;99.90
7216;DHT22;3649;48.798;9.798;2023-09-18T08:03:08;24.30;99.90
7216;DHT22;3649;48.798;9.798;2023-09-18T08:05:35;24.30;99.90
7216;DHT22;3649;48.798;9.798;2023-09-18T08:08:02;24.30;99.90
7216;DHT22;3649;48.798;9.798;2023-09-18T08:10:32;24.30;99.90
7216;DHT22;3649;48.798;9.798;2023-09-18T08:12:59;24.30;99.90
7216;DHT22;3649;48.798;9.798;2023-09-18T08:15:26;24.40;99.90
7216;DHT22;3649;48.798;9.798;2023-09-18T08:17:54;24.40;99.90
7216;DHT22;3649;48.798;9.798;2023-09-18T08:20:21;24.50;99.90
7216;DHT22;3649;48.798;9.798;2023-09-18T08:22:48;24.50;99.90
7216;DHT22;3649;48.798;9.798;2023-09-18T08:25:16;24.40;99.90
7216;DHT22;3649;48.798;9.798;2023-09-18T08:27:43;24.50;99.90
7216;DHT22;3649;48.798;9.798;2023-09-18T08:30:13;24.50;99.90
7216;DHT22;3649;48.798;9.798;2023-09-18T08:32:42;24.50;99.90
7216;DHT22;3649;48.798;9.798;2023-09-18T08:35:09;24.50;99.90
7216;DHT22;3649;48.798;9.798;2023-09-18T08:37:36;24.50;99.90
7216;DHT22;3649;48.798;9.798;2023-09-18T08:40:04;24.50;99.90
7216;DHT22;3649;48.798;9.798;2023-09-18T08:42:43;24.50;99.90
7216;DHT22;3649;48.798;9.798;2023-09-18T08:45:23;24.50;99.90
7216;DHT22;3649;48.798;9.798;2023-09-18T08:47:54;24.60;99.90
7216;DHT22;3649;48.798;9.798;2023-09-18T08:50:21;24.60;99.90
7216;DHT22;3649;48.798;9.798;2023-09-18T08:52:49;24.60;99.90
7216;DHT22;3649;48.798;9.798;2023-09-18T08:55:18;24.60;99.90
7216;DHT22;3649;48.798;9.798;2023-09-18T08:57:46;24.60;99.90
7216;DHT22;3649;48.798;9.798;2023-09-18T09:00:13;24.50;99.90
7216;DHT22;3649;48.798;9.798;2023-09-18T09:02:44;24.60;99.90
7216;DHT22;3649;48.798;9.798;2023-09-18T09:05:12;24.50;99.90
7216;DHT22;3649;48.798;9.798;2023-09-18T09:07:39;24.50;99.90
7216;DHT22;3649;48.798;9.798;2023-09-18T09:10:06;24.50;99.90
7216;DHT22;3649;48.798;9.798;2023-09-18T09:12:47;24.40;99.90
7216;DHT22;3649;48.798;9.798;2023-09-18T09:15:16;24.40;99.90
7216;DHT22;3649;48.798;9.798;2023-09-18T09:17:44;24.30;99.90
7216;DHT22;3649;48.798;9.798;2023-09-18T09:20:14;24.30;99.90
7216;DHT22;3649;48.798;9.798;2023-09-18T09:22:42;24.30;99.90
7216;DHT22;3649;48.798;9.798;2023-09-18T09:25:26;24.30;99.90
7216;DHT22;3649;48.798;9.798;2023-09-18T09:27:54;24.30;99.90
7216;DHT22;3649;48.798;9.798;2023-09-18T09:30:23;24.30;99.90
7216;DHT22;3649;48.798;9.798;2023-09-18T09:32:53;24.30;99.90
7216;DHT22;3649;48.798;9.798;2023-09-18T09:35:24;24.30;99.90
7216;DHT22;3649;48.798;9.798;2023-09-18T09:37:59;24.20;99.90
7216;DHT22;3649;48.798;9.798;2023-09-18T09:40:31;24.10;99.90
7216;DHT22;3649;48.798;9.798;2023-09-18T09:42:58;24.20;99.90
7216;DHT22;3649;48.798;9.798;2023-09-18T09:45:29;24.10;99.90
7216;DHT22;3649;48.798;9.798;2023-09-18T09:47:58;24.10;99.90
7216;DHT22;3649;48.798;9.798;2023-09-18T09:50:26;24.10;99.90
7216;DHT22;3649;48.798;9.798;2023-09-18T09:52:54;24.10;99.90
7216;DHT22;3649;48.798;9.798;2023-09-18T09:55:31;23.90;99.90
7216;DHT22;3649;48.798;9.798;2023-09-18T09:58:00;23.90;99.90
7216;DHT22;3649;48.798;9.798;2023-09-18T10:00:32;23.80;99.90
7216;DHT22;3649;48.798;9.798;2023-09-18T10:03:07;23.70;99.90
7216;DHT22;3649;48.798;9.798;2023-09-18T10:05:38;23.70;99.90
7216;DHT22;3649;48.798;9.798;2023-09-18T10:08:21;23.60;99.90
7216;DHT22;3649;48.798;9.798;2023-09-18T10:10:50;23.60;99.90
7216;DHT22;3649;48.798;9.798;2023-09-18T10:15:46;23.50;99.90
7216;DHT22;3649;48.798;9.798;2023-09-18T10:21:27;23.60;99.90
7216;DHT22;3649;48.798;9.798;2023-09-18T10:26:41;23.50;99.90
7216;DHT22;3649;48.798;9.798;2023-09-18T10:29:11;23.40;99.90
7216;DHT22;3649;48.798;9.798;2023-09-18T10:31:40;23.30;99.90
7216;DHT22;3649;48.798;9.798;2023-09-18T10:34:08;23.30;99.90
7216;DHT22;3649;48.798;9.798;2023-09-18T10:36:37;23.10;99.90
7216;DHT22;3649;48.798;9.798;2023-09-18T10:39:06;23.10;99.90
7216;DHT22;3649;48.798;9.798;2023-09-18T10:41:37;23.00;99.90
7216;DHT22;3649;48.798;9.798;2023-09-18T10:44:05;23.00;99.90
7216;DHT22;3649;48.798;9.798;2023-09-18T10:46:32;22.90;99.90
7216;DHT22;3649;48.798;9.798;2023-09-18T10:49:01;23.00;99.90
7216;DHT22;3649;48.798;9.798;2023-09-18T10:51:31;23.00;99.90
7216;DHT22;3649;48.798;9.798;2023-09-18T10:54:00;23.10;99.90
7216;DHT22;3649;48.798;9.798;2023-09-18T10:56:27;23.10;99.90
7216;DHT22;3649;48.798;9.798;2023-09-18T10:59:01;23.10;99.90
7216;DHT22;3649;48.798;9.798;2023-09-18T11:01:30;23.00;99.90
7216;DHT22;3649;48.798;9.798;2023-09-18T11:03:59;23.00;99.90
7216;DHT22;3649;48.798;9.798;2023-09-18T11:06:28;23.00;99.90
7216;DHT22;3649;48.798;9.798;2023-09-18T11:09:03;23.00;99.90
7216;DHT22;3649;48.798;9.798;2023-09-18T11:11:33;22.90;99.90
7216;DHT22;3649;48.798;9.798;2023-09-18T11:14:02;22.80;99.90
7216;DHT22;3649;48.798;9.798;2023-09-18T11:16:35;22.80;99.90
7216;DHT22;3649;48.798;9.798;2023-09-18T11:19:10;22.90;99.90
7216;DHT22;3649;48.798;9.798;2023-09-18T11:21:38;22.80;99.90
7216;DHT22;3649;48.798;9.798;2023-09-18T11:24:16;22.80;99.90
7216;DHT22;3649;48.798;9.798;2023-09-18T11:26:49;22.80;99.90
7216;DHT22;3649;48.798;9.798;2023-09-18T11:29:20;22.80;99.90
7216;DHT22;3649;48.798;9.798;2023-09-18T11:31:50;22.70;99.90
7216;DHT22;3649;48.798;9.798;2023-09-18T11:34:21;22.80;99.90
7216;DHT22;3649;48.798;9.798;2023-09-18T11:36:49;22.80;99.90
7216;DHT22;3649;48.798;9.798;2023-09-18T11:39:40;22.80;99.90
7216;DHT22;3649;48.798;9.798;2023-09-18T11:42:19;22.80;99.90
7216;DHT22;3649;48.798;9.798;2023-09-18T11:44:46;22.80;99.90
7216;DHT22;3649;48.798;9.798;2023-09-18T11:47:23;22.80;99.90
7216;DHT22;3649;48.798;9.798;2023-09-18T11:52:24;22.80;99.90
7216;DHT22;3649;48.798;9.798;2023-09-18T11:54:52;22.80;99.90
7216;DHT22;3649;48.798;9.798;2023-09-18T11:57:21;22.70;99.90
7216;DHT22;3649;48.798;9.798;2023-09-18T11:59:48;22.70;99.90
7216;DHT22;3649;48.798;9.798;2023-09-18T12:02:27;22.70;99.90
7216;DHT22;3649;48.798;9.798;2023-09-18T12:04:55;22.80;99.90
7216;DHT22;3649;48.798;9.798;2023-09-18T12:07:23;22.60;99.90
7216;DHT22;3649;48.798;9.798;2023-09-18T12:09:51;22.60;99.90
7216;DHT22;3649;48.798;9.798;2023-09-18T12:12:21;22.60;99.90
7216;DHT22;3649;48.798;9.798;2023-09-18T12:14:47;22.50;99.90
7216;DHT22;3649;48.798;9.798;2023-09-18T12:17:15;22.50;99.90
7216;DHT22;3649;48.798;9.798;2023-09-18T12:19:58;22.50;99.90
7216;DHT22;3649;48.798;9.798;2023-09-18T12:22:26;22.50;99.90
7216;DHT22;3649;48.798;9.798;2023-09-18T12:24:53;22.50;99.90
7216;DHT22;3649;48.798;9.798;2023-09-18T12:27:20;22.50;99.90
7216;DHT22;3649;48.798;9.798;2023-09-18T12:29:47;22.50;99.90
7216;DHT22;3649;48.798;9.798;2023-09-18T12:32:14;22.60;99.90
7216;DHT22;3649;48.798;9.798;2023-09-18T12:34:41;22.60;99.90
7216;DHT22;3649;48.798;9.798;2023-09-18T12:37:12;22.70;99.90
7216;DHT22;3649;48.798;9.798;2023-09-18T12:39:39;22.70;99.90
7216;DHT22;3649;48.798;9.798;2023-09-18T12:42:07;22.80;99.90
7216;DHT22;3649;48.798;9.798;2023-09-18T12:44:34;22.80;99.90
7216;DHT22;3649;48.798;9.798;2023-09-18T12:47:01;22.70;99.90
7216;DHT22;3649;48.798;9.798;2023-09-18T12:49:30;22.70;99.90
7216;DHT22;3649;48.798;9.798;2023-09-18T12:52:02;22.70;99.90
7216;DHT22;3649;48.798;9.798;2023-09-18T12:54:42;22.70;99.90
7216;DHT22;3649;48.798;9.798;2023-09-18T12:57:15;22.80;99.90
7216;DHT22;3649;48.798;9.798;2023-09-18T12:59:42;22.80;99.90
7216;DHT22;3649;48.798;9.798;2023-09-18T13:02:13;22.80;99.90
7216;DHT22;3649;48.798;9.798;2023-09-18T13:04:40;22.80;99.90
7216;DHT22;3649;48.798;9.798;2023-09-18T13:07:14;22.80;99.90
7216;DHT22;3649;48.798;9.798;2023-09-18T13:09:41;22.80;99.90
7216;DHT22;3649;48.798;9.798;2023-09-18T13:12:09;22.70;99.90
7216;DHT22;3649;48.798;9.798;2023-09-18T13:14:59;22.80;99.90
7216;DHT22;3649;48.798;9.798;2023-09-18T13:17:52;22.80;99.90
7216;DHT22;3649;48.798;9.798;2023-09-18T13:20:29;22.80;99.90
7216;DHT22;3649;48.798;9.798;2023-09-18T13:22:58;22.90;99.90
7216;DHT22;3649;48.798;9.798;2023-09-18T13:25:34;22.90;99.90
7216;DHT22;3649;48.798;9.798;2023-09-18T13:28:04;22.90;99.90
7216;DHT22;3649;48.798;9.798;2023-09-18T13:30:32;23.00;99.90
7216;DHT22;3649;48.798;9.798;2023-09-18T13:33:03;23.10;99.90
7216;DHT22;3649;48.798;9.798;2023-09-18T13:35:31;23.10;99.90
7216;DHT22;3649;48.798;9.798;2023-09-18T13:37:58;23.10;99.90
7216;DHT22;3649;48.798;9.798;2023-09-18T13:40:29;23.10;99.90
7216;DHT22;3649;48.798;9.798;2023-09-18T13:43:05;23.20;99.90
7216;DHT22;3649;48.798;9.798;2023-09-18T13:45:32;23.20;99.90
7216;DHT22;3649;48.798;9.798;2023-09-18T13:48:03;23.20;99.90
7216;DHT22;3649;48.798;9.798;2023-09-18T13:50:34;23.30;99.90
7216;DHT22;3649;48.798;9.798;2023-09-18T13:53:01;23.30;99.90
7216;DHT22;3649;48.798;9.798;2023-09-18T13:55:31;23.20;99.90
7216;DHT22;3649;48.798;9.798;2023-09-18T13:57:58;23.30;99.90
7216;DHT22;3649;48.798;9.798;2023-09-18T14:00:26;23.30;99.90
7216;DHT22;3649;48.798;9.798;2023-09-18T14:02:53;23.30;99.90
7216;DHT22;3649;48.798;9.798;2023-09-18T14:05:21;23.40;99.90
7216;DHT22;3649;48.798;9.798;2023-09-18T14:07:48;23.40;99.90
7216;DHT22;3649;48.798;9.798;2023-09-18T14:10:16;23.30;99.90
7216;DHT22;3649;48.798;9.798;2023-09-18T14:12:45;23.40;99.90
7216;DHT22;3649;48.798;9.798;2023-09-18T14:15:12;23.40;99.90
7216;DHT22;3649;48.798;9.798;2023-09-18T14:17:39;23.40;99.90
7216;DHT22;3649;48.798;9.798;2023-09-18T14:20:07;23.40;99.90
7216;DHT22;3649;48.798;9.798;2023-09-18T14:22:35;23.40;99.90
7216;DHT22;3649;48.798;9.798;2023-09-18T14:25:03;23.40;99.90
7216;DHT22;3649;48.798;9.798;2023-09-18T14:27:34;23.50;99.90
7216;DHT22;3649;48.798;9.798;2023-09-18T14:30:03;23.50;99.90
7216;DHT22;3649;48.798;9.798;2023-09-18T14:32:35;23.50;99.90
7216;DHT22;3649;48.798;9.798;2023-09-18T14:35:04;23.50;99.90
7216;DHT22;3649;48.798;9.798;2023-09-18T14:37:36;23.60;99.90
7216;DHT22;3649;48.798;9.798;2023-09-18T14:40:03;23.60;99.90
7216;DHT22;3649;48.798;9.798;2023-09-18T14:42:31;23.60;99.90
7216;DHT22;3649;48.798;9.798;2023-09-18T14:44:58;23.70;99.90
7216;DHT22;3649;48.798;9.798;2023-09-18T14:47:25;23.80;99.90
7216;DHT22;3649;48.798;9.798;2023-09-18T14:49:52;23.80;99.90
7216;DHT22;3649;48.798;9.798;2023-09-18T14:52:19;23.80;99.90
7216;DHT22;3649;48.798;9.798;2023-09-18T14:54:49;23.80;99.90
7216;DHT22;3649;48.798;9.798;2023-09-18T14:57:16;23.90;99.90
7216;DHT22;3649;48.798;9.798;2023-09-18T14:59:43;24.00;99.90
7216;DHT22;3649;48.798;9.798;2023-09-18T15:02:14;24.00;99.90
7216;DHT22;3649;48.798;9.798;2023-09-18T15:04:43;24.10;99.90
7216;DHT22;3649;48.798;9.798;2023-09-18T15:07:10;24.10;99.90
7216;DHT22;3649;48.798;9.798;2023-09-18T15:09:37;24.00;99.90
7216;DHT22;3649;48.798;9.798;2023-09-18T15:12:05;23.90;99.90
7216;DHT22;3649;48.798;9.798;2023-09-18T15:14:36;24.00;99.90
7216;DHT22;3649;48.798;9.798;2023-09-18T15:17:03;24.00;99.90
7216;DHT22;3649;48.798;9.798;2023-09-18T15:19:30;24.10;99.90
7216;DHT22;3649;48.798;9.798;2023-09-18T15:21:58;24.00;99.90
7216;DHT22;3649;48.798;9.798;2023-09-18T15:24:26;23.90;99.90
7216;DHT22;3649;48.798;9.798;2023-09-18T15:26:53;24.00;99.90
7216;DHT22;3649;48.798;9.798;2023-09-18T15:29:20;23.90;99.90
7216;DHT22;3649;48.798;9.798;2023-09-18T15:31:48;23.90;99.90
7216;DHT22;3649;48.798;9.798;2023-09-18T15:34:15;23.80;99.90
7216;DHT22;3649;48.798;9.798;2023-09-18T15:36:43;23.80;99.90
7216;DHT22;3649;48.798;9.798;2023-09-18T15:39:10;23.80;99.90
7216;DHT22;3649;48.798;9.798;2023-09-18T15:41:37;23.80;99.90
7216;DHT22;3649;48.798;9.798;2023-09-18T15:44:05;23.70;99.90
7216;DHT22;3649;48.798;9.798;2023-09-18T15:46:33;23.80;99.90
7216;DHT22;3649;48.798;9.798;2023-09-18T15:49:01;23.90;99.90
7216;DHT22;3649;48.798;9.798;2023-09-18T15:51:28;24.00;99.90
7216;DHT22;3649;48.798;9.798;2023-09-18T15:53:55;23.90;99.90
7216;DHT22;3649;48.798;9.798;2023-09-18T15:56:24;23.90;99.90
7216;DHT22;3649;48.798;9.798;2023-09-18T15:58:51;23.90;99.90
7216;DHT22;3649;48.798;9.798;2023-09-18T16:01:18;23.80;99.90
7216;DHT22;3649;48.798;9.798;2023-09-18T16:03:45;23.80;99.90
7216;DHT22;3649;48.798;9.798;2023-09-18T16:06:16;23.90;99.90
7216;DHT22;3649;48.798;9.798;2023-09-18T16:08:47;23.90;99.90
7216;DHT22;3649;48.798;9.798;2023-09-18T16:11:16;24.00;99.90
7216;DHT22;3649;48.798;9.798;2023-09-18T16:13:43;23.90;99.90
7216;DHT22;3649;48.798;9.798;2023-09-18T16:16:10;23.90;99.90
7216;DHT22;3649;48.798;9.798;2023-09-18T16:18:38;23.90;99.90
7216;DHT22;3649;48.798;9.798;2023-09-18T16:21:05;23.90;99.90
7216;DHT22;3649;48.798;9.798;2023-09-18T16:23:33;23.80;99.90